KCAE/CAE METAR and TAF weather

Enter ICAO airport designator
Station Type Date Time Source
KCAE METAR 2022/01/23 10:56 UTC NOAA

KCAE 231056Z 00000KT 10SM CLR M06/M07 A3012 RMK AO2 SLP202 I1000 T10561072


Station Type Date Time Source
KCAE Decoded METAR 2022/01/23 10:56 UTC NOAA

COLUMBIA METROPOLITAN AIRPORT , SC, United States (KCAE) 33-57N 081-07W 73M
Jan 23, 2022 - 05:56 AM EST / 2022.01.23 1056 UTC
Wind: Calm:0
Visibility: 10 mile(s):0
Sky conditions: clear
Temperature: 21.9 F (-5.6 C)
Dew Point: 19.0 F (-7.2 C)
Relative Humidity: 88%
Pressure (altimeter): 30.12 in. Hg (1019 hPa)
ob: KCAE 231056Z 00000KT 10SM CLR M06/M07 A3012 RMK AO2 SLP202 I1000 T10561072
cycle: 11

Station Type Date Time Source
KCAE TAF 2022/01/23 12:22 UTC NOAA

TAF KCAE 231120Z 2312/2412 00000KT P6SM SKC
FM231500 25008KT P6SM SKC
FM240000 VRB03KT P6SM SKC

Example: see airport list